Little Cedar, Iowa
Current Conditions -  °F | °C
As of 5:56 PM on Wednesday 22 Oct 2014 (Local Time) from KAUM Reporting Station
Scattered Clouds Scattered Clouds  
Wind Chill: 55°   Ceiling: Unl
Heat Index: 55°   Visibility: 10mi
Dew Point: 41°   Wind: 9mph
Humidity: 58%   Direction: 160°SSE
Pressure: 30.1"   Gusts: NA
Location:  43.38°N, 92.73°W
Report Text: KAUM 222256Z AUTO 16008KT 10SM SCT055 13/05 A3010 RMK AO2
Loading
Personal Weather Stations






























Interactive Weather Map
Tropical Storm Tracking
New forecast layout! Learn more

10-Day Weather Forecast

Advertisements
Track Severe Weather on mobile